Terminal Aerodrome Forecast
Issued by NWS Spokane, WA

Home | Current Version | Previous Version | Text Only | Print | Product List | Glossary On
Versions: 1 2 3 4 5 6 7 8 9 10 11 12 13 14 15 16 17 18 19 20 21 22 23 24
000
FTUS46 KOTX 231741
TAFGEG
TAF
KGEG 231741Z 2318/2418 06008KT P6SM SCT150
     FM232000 06008KT P6SM SCT070 BKN150
     FM240000 19006KT P6SM VCTS SCT050CB BKN090 BKN120
     FM240600 17005KT P6SM BKN100 BKN150=

USA.gov is the U.S. government's official web portal to all federal, state and local government web resources and services.